Time;durP1;ratioP1;P1;durP2;ratioP2;P2;SDS_P1;SDS_P2;PMS_P1;PMS_P2;Temp;Humidity;BMP_temperature;BMP_pressure;BME280_temperature;BME280_humidity;BME280_pressure;Samples;Min_cycle;Max_cycle;Signal;HPM_P1;HPM_P2
2021/01/16 00:00:53;;;;;;;6.07;4.53;;;;;;;;;;5051931;28;20538;-76
2021/01/16 00:03:21;;;;;;;6.77;4.70;;;;;;;;;;5059493;28;20513;-76
2021/01/16 00:05:49;;;;;;;5.10;4.57;;;;;;;;;;5060524;28;20489;-76
2021/01/16 00:08:17;;;;;;;6.33;4.50;;;;;;;;;;5060457;28;20437;-76
2021/01/16 00:10:46;;;;;;;8.13;5.27;;;;;;;;;;5060310;28;20480;-76
2021/01/16 00:13:13;;;;;;;8.57;4.87;;;;;;;;;;5066370;28;20967;-74
2021/01/16 00:15:42;;;;;;;6.63;4.50;;;;;;;;;;5051280;28;20462;-74
2021/01/16 00:18:10;;;;;;;6.57;4.40;;;;;;;;;;5059668;28;20572;-74
2021/01/16 00:20:39;;;;;;;7.20;5.00;;;;;;;;;;5060178;28;20442;-74
2021/01/16 00:23:07;;;;;;;7.10;4.63;;;;;;;;;;5047002;28;20532;-75
2021/01/16 00:25:34;;;;;;;7.53;6.03;;;;;;;;;;5059667;28;20493;-76
2021/01/16 00:28:02;;;;;;;5.73;4.20;;;;;;;;;;5060017;28;20464;-76
2021/01/16 00:30:31;;;;;;;4.60;3.80;;;;;;;;;;5059423;28;20943;-76
2021/01/16 00:32:58;;;;;;;6.90;4.53;;;;;;;;;;5059857;28;20532;-76
2021/01/16 00:35:27;;;;;;;4.53;4.00;;;;;;;;;;5059848;28;20976;-76
2021/01/16 00:37:55;;;;;;;4.17;3.50;;;;;;;;;;5059814;28;20493;-76
2021/01/16 00:40:23;;;;;;;6.23;4.20;;;;;;;;;;5060012;28;20449;-76
2021/01/16 00:42:51;;;;;;;4.87;4.20;;;;;;;;;;5059984;28;20457;-76
2021/01/16 00:45:19;;;;;;;6.33;5.53;;;;;;;;;;5059360;28;21011;-75
2021/01/16 00:47:46;;;;;;;7.10;4.00;;;;;;;;;;5059923;28;20485;-76
2021/01/16 00:50:14;;;;;;;4.77;3.93;;;;;;;;;;5059595;28;20521;-76
2021/01/16 00:52:41;;;;;;;4.53;3.67;;;;;;;;;;5059666;28;20528;-76
2021/01/16 00:55:09;;;;;;;6.03;3.83;;;;;;;;;;5059363;28;20461;-76
2021/01/16 00:57:36;;;;;;;4.20;3.80;;;;;;;;;;5059268;28;20997;-76
2021/01/16 01:00:05;;;;;;;4.83;3.90;;;;;;;;;;5059187;28;20434;-76
2021/01/16 01:02:34;;;;;;;6.10;3.80;;;;;;;;;;5059186;28;20515;-75
2021/01/16 01:05:01;;;;;;;5.10;4.07;;;;;;;;;;5058822;28;20470;-75
2021/01/16 01:07:28;;;;;;;3.97;3.40;;;;;;;;;;5059015;28;20517;-75
2021/01/16 01:09:55;;;;;;;5.57;3.60;;;;;;;;;;5059019;28;20451;-75
2021/01/16 01:12:22;;;;;;;6.93;4.20;;;;;;;;;;5059477;28;20457;-75
2021/01/16 01:14:48;;;;;;;4.77;4.20;;;;;;;;;;5058904;28;20457;-75
2021/01/16 01:17:16;;;;;;;5.37;4.13;;;;;;;;;;5058917;28;20958;-75
2021/01/16 01:19:44;;;;;;;6.90;4.60;;;;;;;;;;5059027;28;20440;-75
2021/01/16 01:22:11;;;;;;;4.03;3.63;;;;;;;;;;5058858;28;20537;-75
2021/01/16 01:24:39;;;;;;;6.50;3.83;;;;;;;;;;5059034;28;20449;-76
2021/01/16 01:27:06;;;;;;;8.07;4.63;;;;;;;;;;5058925;28;20520;-76
2021/01/16 01:29:33;;;;;;;7.37;4.10;;;;;;;;;;5058741;28;20461;-76
2021/01/16 01:32:00;;;;;;;4.30;3.87;;;;;;;;;;5059297;28;20464;-76
2021/01/16 01:34:27;;;;;;;6.30;4.20;;;;;;;;;;5059008;28;20465;-76
2021/01/16 01:36:55;;;;;;;4.47;3.80;;;;;;;;;;5058927;28;20505;-76
2021/01/16 01:39:22;;;;;;;5.37;4.43;;;;;;;;;;5058397;28;20839;-76
2021/01/16 01:41:49;;;;;;;6.37;4.10;;;;;;;;;;5058839;28;20528;-76
2021/01/16 01:44:16;;;;;;;6.07;5.07;;;;;;;;;;5058438;28;20544;-75
2021/01/16 01:46:43;;;;;;;5.57;4.77;;;;;;;;;;5058935;28;20572;-76
2021/01/16 01:49:10;;;;;;;5.17;4.53;;;;;;;;;;5058880;28;22222;-76
2021/01/16 01:51:38;;;;;;;5.60;4.30;;;;;;;;;;5058920;28;20438;-76
2021/01/16 01:54:07;;;;;;;5.60;4.13;;;;;;;;;;5058973;28;20484;-76
2021/01/16 01:56:37;;;;;;;6.50;4.60;;;;;;;;;;5059074;28;20442;-76
2021/01/16 01:59:06;;;;;;;6.07;4.70;;;;;;;;;;5059261;28;20448;-75
2021/01/16 02:01:38;;;;;;;6.07;4.83;;;;;;;;;;5058137;28;20442;-75
2021/01/16 02:04:07;;;;;;;6.90;4.87;;;;;;;;;;5059143;28;20495;-76
2021/01/16 02:06:34;;;;;;;6.57;4.83;;;;;;;;;;5058355;28;20572;-76
2021/01/16 02:09:01;;;;;;;6.10;4.13;;;;;;;;;;5059043;28;20503;-76
2021/01/16 02:11:29;;;;;;;5.93;4.50;;;;;;;;;;5058707;28;20541;-76
2021/01/16 02:13:56;;;;;;;6.47;4.83;;;;;;;;;;5059530;28;20450;-76
2021/01/16 02:16:28;;;;;;;5.80;4.87;;;;;;;;;;5058714;28;20526;-76
2021/01/16 02:18:57;;;;;;;6.13;4.70;;;;;;;;;;5059544;28;20453;-75
2021/01/16 02:21:25;;;;;;;6.23;4.17;;;;;;;;;;5059109;28;20434;-76
2021/01/16 02:23:58;;;;;;;7.23;4.47;;;;;;;;;;5059786;28;20449;-76
2021/01/16 02:26:47;;;;;;;6.63;5.10;;;;;;;;;;5060211;28;20525;-76
2021/01/16 02:29:15;;;;;;;6.70;4.80;;;;;;;;;;5061496;28;20456;-76
2021/01/16 02:31:44;;;;;;;7.43;5.00;;;;;;;;;;5062875;28;20445;-77
2021/01/16 02:34:14;;;;;;;5.47;4.67;;;;;;;;;;5061929;28;20496;-76
2021/01/16 02:36:59;;;;;;;5.33;3.93;;;;;;;;;;5045333;28;20441;-76
2021/01/16 02:39:28;;;;;;;6.00;4.67;;;;;;;;;;5037326;28;21068;-76
2021/01/16 02:41:58;;;;;;;6.03;5.07;;;;;;;;;;5058130;28;20445;-76
2021/01/16 02:44:34;;;;;;;7.27;5.30;;;;;;;;;;5057600;28;20544;-76
2021/01/16 02:47:03;;;;;;;8.27;5.83;;;;;;;;;;5057516;28;20512;-76
2021/01/16 02:49:37;;;;;;;8.30;5.97;;;;;;;;;;5057667;28;20441;-75
2021/01/16 02:52:06;;;;;;;8.73;5.50;;;;;;;;;;5058017;28;20448;-76
2021/01/16 02:54:37;;;;;;;5.53;4.97;;;;;;;;;;5057786;28;20548;-76
2021/01/16 02:57:04;;;;;;;8.33;5.47;;;;;;;;;;5057290;28;20469;-76
2021/01/16 02:59:34;;;;;;;7.43;4.57;;;;;;;;;;5057179;28;20568;-76
2021/01/16 03:02:03;;;;;;;6.03;5.10;;;;;;;;;;5057616;28;20442;-75
2021/01/16 03:04:31;;;;;;;7.10;5.77;;;;;;;;;;5057472;28;20469;-75
2021/01/16 03:06:58;;;;;;;6.47;4.93;;;;;;;;;;5057205;28;20493;-75
2021/01/16 03:09:27;;;;;;;7.70;5.83;;;;;;;;;;5057521;28;20452;-75
2021/01/16 03:11:54;;;;;;;7.43;5.13;;;;;;;;;;5057480;28;20525;-76
2021/01/16 03:14:21;;;;;;;9.87;6.30;;;;;;;;;;5059179;28;20832;-75
2021/01/16 03:17:04;;;;;;;8.53;5.93;;;;;;;;;;5061502;28;20450;-75
2021/01/16 03:19:32;;;;;;;7.90;5.40;;;;;;;;;;5061335;28;20445;-75
2021/01/16 03:21:59;;;;;;;6.17;5.50;;;;;;;;;;5061177;28;20806;-75
2021/01/16 03:24:27;;;;;;;7.00;5.90;;;;;;;;;;5061182;28;20465;-75
2021/01/16 03:26:54;;;;;;;6.53;5.23;;;;;;;;;;5061236;28;20520;-75
2021/01/16 03:29:20;;;;;;;7.40;5.60;;;;;;;;;;5060886;28;20433;-75
2021/01/16 03:31:47;;;;;;;5.87;5.10;;;;;;;;;;5061423;28;20495;-75
2021/01/16 03:34:16;;;;;;;7.20;5.20;;;;;;;;;;5060681;28;20480;-75
2021/01/16 03:36:42;;;;;;;7.30;4.87;;;;;;;;;;5060834;28;20445;-75
2021/01/16 03:39:09;;;;;;;6.70;5.10;;;;;;;;;;5060656;28;20508;-76
2021/01/16 03:41:36;;;;;;;6.37;4.93;;;;;;;;;;5060565;28;20472;-75
2021/01/16 03:44:03;;;;;;;6.93;5.50;;;;;;;;;;5060650;28;20991;-76
2021/01/16 03:46:30;;;;;;;6.83;5.50;;;;;;;;;;5060319;28;20476;-76
2021/01/16 03:48:57;;;;;;;6.33;5.60;;;;;;;;;;5060670;28;20482;-76
2021/01/16 03:51:25;;;;;;;5.77;4.73;;;;;;;;;;5060568;28;20572;-75
2021/01/16 03:53:52;;;;;;;5.73;5.07;;;;;;;;;;5060361;28;20809;-76
2021/01/16 03:56:19;;;;;;;7.37;5.20;;;;;;;;;;5060745;28;20513;-76
2021/01/16 03:58:46;;;;;;;8.10;5.20;;;;;;;;;;5060575;28;20532;-76
2021/01/16 04:01:13;;;;;;;8.33;6.13;;;;;;;;;;5060257;28;20528;-76
2021/01/16 04:03:40;;;;;;;6.90;5.20;;;;;;;;;;5060315;28;20528;-76
2021/01/16 04:06:08;;;;;;;6.47;4.67;;;;;;;;;;5060311;28;20496;-76
2021/01/16 04:08:35;;;;;;;9.23;5.33;;;;;;;;;;5060496;28;20851;-76
2021/01/16 04:11:03;;;;;;;6.70;5.63;;;;;;;;;;5060292;28;20449;-76
2021/01/16 04:13:30;;;;;;;7.20;5.30;;;;;;;;;;5060380;28;20449;-76
2021/01/16 04:15:57;;;;;;;6.43;5.17;;;;;;;;;;5059726;28;20528;-76
2021/01/16 04:18:24;;;;;;;9.00;5.80;;;;;;;;;;5060410;28;20454;-76
2021/01/16 04:20:51;;;;;;;7.90;5.53;;;;;;;;;;5060253;28;20520;-76
2021/01/16 04:23:18;;;;;;;5.87;5.23;;;;;;;;;;5059950;28;20449;-76
2021/01/16 04:25:46;;;;;;;8.67;5.43;;;;;;;;;;5059397;28;20912;-75
2021/01/16 04:28:13;;;;;;;8.13;5.77;;;;;;;;;;5059791;28;20774;-75
2021/01/16 04:30:40;;;;;;;8.23;6.03;;;;;;;;;;5059521;28;20549;-76
2021/01/16 04:33:07;;;;;;;7.07;5.37;;;;;;;;;;5059986;28;20446;-76
2021/01/16 04:35:34;;;;;;;7.33;5.77;;;;;;;;;;5059844;28;20549;-76
2021/01/16 04:38:01;;;;;;;8.17;6.27;;;;;;;;;;5059616;28;20477;-75
2021/01/16 04:40:29;;;;;;;6.60;5.37;;;;;;;;;;5059748;28;20444;-75
2021/01/16 04:42:56;;;;;;;8.20;5.70;;;;;;;;;;5059608;28;20438;-75
2021/01/16 04:45:23;;;;;;;8.43;6.27;;;;;;;;;;5059000;28;20556;-75
2021/01/16 04:47:50;;;;;;;6.60;5.00;;;;;;;;;;5059639;28;20445;-76
2021/01/16 04:50:19;;;;;;;9.73;6.00;;;;;;;;;;5059837;28;20464;-76
2021/01/16 04:52:46;;;;;;;8.50;6.07;;;;;;;;;;5059783;28;20445;-76
2021/01/16 04:55:15;;;;;;;9.20;6.23;;;;;;;;;;5059391;28;20836;-75
2021/01/16 04:57:42;;;;;;;11.37;6.93;;;;;;;;;;5059311;28;20992;-75
2021/01/16 05:00:11;;;;;;;8.40;5.50;;;;;;;;;;5059325;28;20525;-75
2021/01/16 05:02:42;;;;;;;7.80;6.07;;;;;;;;;;5059107;28;20855;-75
2021/01/16 05:05:10;;;;;;;9.07;5.90;;;;;;;;;;5059140;28;20453;-75
2021/01/16 05:07:37;;;;;;;6.63;5.33;;;;;;;;;;5059302;28;20481;-75
2021/01/16 05:10:06;;;;;;;7.20;5.63;;;;;;;;;;5059193;28;20461;-75
2021/01/16 05:12:37;;;;;;;7.87;5.77;;;;;;;;;;5059279;28;20460;-75
2021/01/16 05:15:05;;;;;;;8.10;6.00;;;;;;;;;;5058935;28;20460;-75
2021/01/16 05:17:36;;;;;;;9.57;6.13;;;;;;;;;;5059019;28;20875;-75
2021/01/16 05:20:04;;;;;;;6.20;5.60;;;;;;;;;;5059141;28;20503;-75
2021/01/16 05:22:31;;;;;;;8.50;5.70;;;;;;;;;;5058904;28;20498;-75
2021/01/16 05:25:04;;;;;;;9.43;5.93;;;;;;;;;;5058843;28;20477;-76
2021/01/16 05:27:33;;;;;;;8.33;5.67;;;;;;;;;;5058993;28;20567;-75
2021/01/16 05:30:01;;;;;;;9.60;6.40;;;;;;;;;;5058623;28;20457;-75
2021/01/16 05:32:29;;;;;;;9.57;5.90;;;;;;;;;;5058668;28;20446;-76
2021/01/16 05:35:01;;;;;;;7.37;5.57;;;;;;;;;;5058597;28;20464;-76
2021/01/16 05:37:29;;;;;;;8.33;5.67;;;;;;;;;;5058240;28;20806;-75
2021/01/16 05:39:56;;;;;;;7.27;5.87;;;;;;;;;;5058978;28;20449;-76
2021/01/16 05:42:24;;;;;;;8.67;5.73;;;;;;;;;;5058433;28;20814;-76
2021/01/16 05:44:53;;;;;;;9.67;5.47;;;;;;;;;;5058061;28;20518;-76
2021/01/16 05:47:20;;;;;;;7.60;6.13;;;;;;;;;;5058162;28;20485;-76
2021/01/16 05:49:47;;;;;;;7.97;5.43;;;;;;;;;;5058488;28;20441;-76
2021/01/16 05:52:17;;;;;;;7.87;5.80;;;;;;;;;;5058156;28;20457;-75
2021/01/16 05:54:45;;;;;;;7.83;5.50;;;;;;;;;;5058517;28;20471;-76
2021/01/16 05:57:16;;;;;;;7.67;6.53;;;;;;;;;;5058338;28;20445;-76
2021/01/16 05:59:45;;;;;;;9.50;5.97;;;;;;;;;;5058262;28;20456;-76
2021/01/16 06:02:13;;;;;;;9.67;6.60;;;;;;;;;;5058454;28;20476;-76
2021/01/16 06:04:46;;;;;;;8.97;5.67;;;;;;;;;;5058475;28;20548;-76
2021/01/16 06:07:13;;;;;;;9.33;5.97;;;;;;;;;;5058254;28;20480;-76
2021/01/16 06:09:41;;;;;;;8.77;6.43;;;;;;;;;;5056147;28;20483;-76
2021/01/16 06:12:12;;;;;;;9.90;6.53;;;;;;;;;;5057810;28;20450;-76
2021/01/16 06:14:41;;;;;;;12.83;5.67;;;;;;;;;;5057522;28;20864;-76
2021/01/16 06:17:10;;;;;;;7.90;5.77;;;;;;;;;;5050830;28;20446;-75
2021/01/16 06:19:42;;;;;;;7.93;5.40;;;;;;;;;;5057934;28;20453;-75
2021/01/16 06:22:09;;;;;;;8.87;5.50;;;;;;;;;;5057973;28;20449;-74
2021/01/16 06:24:37;;;;;;;10.83;5.57;;;;;;;;;;5057707;28;20473;-75
2021/01/16 06:27:05;;;;;;;8.73;6.33;;;;;;;;;;5057402;28;20485;-74
2021/01/16 06:29:34;;;;;;;7.87;6.00;;;;;;;;;;5057770;28;20465;-75
2021/01/16 06:32:05;;;;;;;7.57;5.80;;;;;;;;;;5057741;28;20965;-75
2021/01/16 06:34:33;;;;;;;6.83;5.30;;;;;;;;;;5057463;28;21102;-76
2021/01/16 06:37:05;;;;;;;7.47;5.20;;;;;;;;;;5057998;28;20445;-75
2021/01/16 06:39:35;;;;;;;6.83;5.33;;;;;;;;;;5056807;28;20473;-75
2021/01/16 06:42:07;;;;;;;8.10;5.43;;;;;;;;;;5055231;28;20912;-75
2021/01/16 06:44:34;;;;;;;9.00;4.93;;;;;;;;;;5057149;28;20592;-75
2021/01/16 06:47:02;;;;;;;6.57;4.57;;;;;;;;;;5057568;28;20478;-75
2021/01/16 06:49:30;;;;;;;7.77;5.07;;;;;;;;;;5061731;28;20824;-76
2021/01/16 06:51:58;;;;;;;8.50;5.17;;;;;;;;;;5058839;28;20528;-75
2021/01/16 06:54:25;;;;;;;9.40;5.00;;;;;;;;;;5061675;28;20461;-75
2021/01/16 06:57:02;;;;;;;5.63;4.23;;;;;;;;;;5061235;28;20452;-75
2021/01/16 06:59:31;;;;;;;6.00;4.13;;;;;;;;;;5061435;28;20441;-75
2021/01/16 07:01:58;;;;;;;7.27;5.17;;;;;;;;;;5058762;28;20468;-75
2021/01/16 07:04:27;;;;;;;5.00;4.30;;;;;;;;;;5061578;28;20507;-75
2021/01/16 07:06:55;;;;;;;10.93;5.93;;;;;;;;;;5061296;28;20477;-74
2021/01/16 07:09:24;;;;;;;9.80;5.93;;;;;;;;;;5061373;28;20445;-76
2021/01/16 07:11:52;;;;;;;12.17;6.77;;;;;;;;;;5060784;28;20513;-75
2021/01/16 07:14:19;;;;;;;8.77;6.53;;;;;;;;;;5060925;28;20473;-75
2021/01/16 07:16:48;;;;;;;11.73;7.67;;;;;;;;;;5061226;28;20524;-76
2021/01/16 07:19:19;;;;;;;10.77;6.83;;;;;;;;;;5063191;28;20425;-75
2021/01/16 07:21:47;;;;;;;12.50;8.00;;;;;;;;;;5060980;28;20487;-75
2021/01/16 07:24:14;;;;;;;11.63;6.53;;;;;;;;;;5061341;28;20462;-76
2021/01/16 07:26:41;;;;;;;11.73;8.00;;;;;;;;;;5060839;28;20477;-75
2021/01/16 07:29:09;;;;;;;14.87;8.47;;;;;;;;;;5061149;28;20441;-75
2021/01/16 07:31:36;;;;;;;11.17;8.10;;;;;;;;;;5060824;28;20437;-75
2021/01/16 07:34:04;;;;;;;8.03;6.67;;;;;;;;;;5063219;28;20440;-75
2021/01/16 07:36:32;;;;;;;10.70;6.80;;;;;;;;;;5060275;28;20552;-75
2021/01/16 07:39:02;;;;;;;10.57;7.50;;;;;;;;;;5060542;28;20544;-76
2021/01/16 07:41:31;;;;;;;15.17;9.87;;;;;;;;;;5060968;28;20505;-75
2021/01/16 07:44:04;;;;;;;11.47;7.90;;;;;;;;;;5060117;28;20426;-75
2021/01/16 07:46:32;;;;;;;12.67;7.20;;;;;;;;;;5058993;28;20563;-75
2021/01/16 07:49:00;;;;;;;9.33;7.00;;;;;;;;;;5060184;28;20870;-75
2021/01/16 07:51:32;;;;;;;11.03;7.50;;;;;;;;;;5060550;28;20434;-75
2021/01/16 07:54:06;;;;;;;11.73;7.50;;;;;;;;;;5060652;28;20445;-75
2021/01/16 07:56:41;;;;;;;14.87;8.47;;;;;;;;;;5060727;28;20524;-76
2021/01/16 07:59:14;;;;;;;11.17;7.33;;;;;;;;;;5057245;28;20928;-76
2021/01/16 08:01:46;;;;;;;12.13;7.27;;;;;;;;;;5060736;28;20457;-76
2021/01/16 08:04:22;;;;;;;13.00;7.83;;;;;;;;;;5061782;28;20964;-75
2021/01/16 08:07:07;;;;;;;10.50;6.67;;;;;;;;;;5069041;28;20481;-76
2021/01/16 08:09:45;;;;;;;10.07;6.93;;;;;;;;;;5070167;28;20448;-76
2021/01/16 08:12:12;;;;;;;13.20;8.00;;;;;;;;;;5059046;28;20875;-76
2021/01/16 08:14:40;;;;;;;10.70;7.10;;;;;;;;;;5059163;28;21048;-74
2021/01/16 08:17:10;;;;;;;11.23;6.57;;;;;;;;;;5060482;28;20451;-76
2021/01/16 08:19:41;;;;;;;9.53;7.00;;;;;;;;;;5060273;28;20475;-75
2021/01/16 08:22:14;;;;;;;10.47;6.73;;;;;;;;;;5060339;28;20446;-75
2021/01/16 08:24:55;;;;;;;7.97;6.03;;;;;;;;;;5059871;28;20473;-75
2021/01/16 08:27:23;;;;;;;7.23;5.60;;;;;;;;;;5059478;28;20902;-75
2021/01/16 08:29:51;;;;;;;6.77;5.20;;;;;;;;;;5059846;28;20445;-75
2021/01/16 08:32:18;;;;;;;9.67;6.47;;;;;;;;;;5060029;28;20446;-76
2021/01/16 08:34:49;;;;;;;13.13;6.93;;;;;;;;;;5060627;28;20540;-75
2021/01/16 08:37:28;;;;;;;8.80;6.30;;;;;;;;;;5062504;28;20445;-76
2021/01/16 08:39:56;;;;;;;11.63;6.47;;;;;;;;;;5023357;28;20447;-75
2021/01/16 08:42:25;;;;;;;9.47;5.90;;;;;;;;;;5020103;28;20462;-74
2021/01/16 08:44:52;;;;;;;10.30;6.10;;;;;;;;;;5019189;28;20499;-74
2021/01/16 08:47:19;;;;;;;8.90;6.47;;;;;;;;;;5018520;28;20475;-74
2021/01/16 08:49:46;;;;;;;9.47;5.73;;;;;;;;;;5019371;28;20431;-74
2021/01/16 08:52:29;;;;;;;7.90;6.17;;;;;;;;;;5019526;28;20511;-74
2021/01/16 08:55:01;;;;;;;10.07;5.87;;;;;;;;;;5017825;28;20972;-74
2021/01/16 08:57:31;;;;;;;7.93;5.70;;;;;;;;;;5022790;28;20543;-74
2021/01/16 09:00:13;;;;;;;7.93;5.77;;;;;;;;;;5019351;28;20439;-74
2021/01/16 09:02:41;;;;;;;8.20;6.07;;;;;;;;;;5015041;28;20887;-76
2021/01/16 09:05:23;;;;;;;8.43;7.07;;;;;;;;;;5025538;28;20515;-77
2021/01/16 09:07:50;;;;;;;8.30;5.83;;;;;;;;;;5019565;28;20512;-77
2021/01/16 09:10:25;;;;;;;7.87;5.70;;;;;;;;;;5020544;28;20530;-76
2021/01/16 09:12:55;;;;;;;5.60;5.00;;;;;;;;;;5020009;28;20514;-76
2021/01/16 09:15:23;;;;;;;7.00;4.80;;;;;;;;;;5019035;28;20988;-77
2021/01/16 09:18:17;;;;;;;7.87;5.97;;;;;;;;;;5019423;28;20479;-77
2021/01/16 09:20:45;;;;;;;8.07;5.40;;;;;;;;;;4973483;28;20526;-77
2021/01/16 09:23:21;;;;;;;7.20;5.23;;;;;;;;;;5018694;28;20479;-75
2021/01/16 09:25:50;;;;;;;7.63;5.47;;;;;;;;;;5018393;28;20467;-76
2021/01/16 09:28:17;;;;;;;9.57;6.43;;;;;;;;;;5018256;28;20563;-76
2021/01/16 09:30:43;;;;;;;7.20;5.60;;;;;;;;;;5018306;28;20474;-76
2021/01/16 09:33:19;;;;;;;8.63;5.97;;;;;;;;;;5018531;28;20447;-76
2021/01/16 09:35:46;;;;;;;20.10;7.40;;;;;;;;;;5017796;28;20890;-77
2021/01/16 09:38:18;;;;;;;8.33;6.43;;;;;;;;;;5030554;28;20544;-76
2021/01/16 09:40:45;;;;;;;9.33;6.23;;;;;;;;;;5058885;28;20467;-76
2021/01/16 09:43:17;;;;;;;8.13;5.93;;;;;;;;;;5058668;28;20529;-76
2021/01/16 09:45:50;;;;;;;7.57;5.63;;;;;;;;;;5058028;28;20564;-76
2021/01/16 09:48:33;;;;;;;7.87;5.60;;;;;;;;;;5058521;28;20567;-75
2021/01/16 09:51:01;;;;;;;6.40;4.87;;;;;;;;;;5056270;28;20477;-76
2021/01/16 09:53:29;;;;;;;8.10;5.63;;;;;;;;;;5058558;28;20460;-75
2021/01/16 09:55:56;;;;;;;8.60;5.97;;;;;;;;;;5058082;28;20905;-76
2021/01/16 09:58:35;;;;;;;6.73;5.23;;;;;;;;;;5058233;28;20890;-76
2021/01/16 10:01:15;;;;;;;8.47;5.73;;;;;;;;;;5058034;28;20457;-76
2021/01/16 10:03:43;;;;;;;8.17;5.30;;;;;;;;;;5058115;28;20433;-76
2021/01/16 10:06:11;;;;;;;8.47;5.47;;;;;;;;;;5058023;28;20537;-76
2021/01/16 10:08:39;;;;;;;7.17;6.33;;;;;;;;;;5057864;28;20912;-76
2021/01/16 10:11:07;;;;;;;8.13;5.93;;;;;;;;;;5058084;28;20453;-76
2021/01/16 10:13:36;;;;;;;6.70;5.27;;;;;;;;;;5058176;28;20437;-76
2021/01/16 10:16:03;;;;;;;8.00;4.70;;;;;;;;;;5057727;28;20469;-76
2021/01/16 10:18:32;;;;;;;10.33;5.87;;;;;;;;;;5058521;28;20469;-76
2021/01/16 10:21:02;;;;;;;7.77;5.43;;;;;;;;;;5057112;28;20446;-77
2021/01/16 10:23:30;;;;;;;7.57;5.83;;;;;;;;;;5057169;28;20448;-74
2021/01/16 10:26:05;;;;;;;6.50;5.37;;;;;;;;;;5056843;28;20467;-77
2021/01/16 10:28:37;;;;;;;10.07;6.33;;;;;;;;;;5057678;28;20473;-77
2021/01/16 10:31:05;;;;;;;10.10;5.90;;;;;;;;;;5057041;28;20544;-80
2021/01/16 10:33:36;;;;;;;7.13;5.40;;;;;;;;;;5058997;28;20527;-81
2021/01/16 10:36:05;;;;;;;9.07;5.30;;;;;;;;;;5054618;28;20992;-81
2021/01/16 10:38:39;;;;;;;7.37;6.27;;;;;;;;;;5059052;28;20477;-83
2021/01/16 10:41:07;;;;;;;6.73;5.70;;;;;;;;;;5058180;28;20580;-80
2021/01/16 10:43:34;;;;;;;9.07;6.10;;;;;;;;;;5059205;28;20451;-79
2021/01/16 10:46:11;;;;;;;8.50;6.07;;;;;;;;;;5058279;28;20478;-80
2021/01/16 10:48:38;;;;;;;6.67;5.47;;;;;;;;;;5058567;28;20485;-79
2021/01/16 10:51:06;;;;;;;7.37;5.80;;;;;;;;;;5058644;28;20448;-79
2021/01/16 10:53:36;;;;;;;10.70;6.63;;;;;;;;;;5059059;28;20968;-81
2021/01/16 10:56:08;;;;;;;8.00;5.57;;;;;;;;;;5045181;28;20491;-79
2021/01/16 10:58:35;;;;;;;7.10;5.63;;;;;;;;;;5057582;28;20524;-76
2021/01/16 11:01:02;;;;;;;7.37;5.77;;;;;;;;;;5057492;28;20541;-79
2021/01/16 11:03:31;;;;;;;11.10;7.10;;;;;;;;;;5057526;28;20495;-77
2021/01/16 11:06:05;;;;;;;8.50;6.33;;;;;;;;;;5057805;28;20500;-79
2021/01/16 11:08:33;;;;;;;8.33;5.57;;;;;;;;;;5058215;28;20481;-78
2021/01/16 11:11:00;;;;;;;6.83;5.67;;;;;;;;;;5057697;28;20936;-77
2021/01/16 11:13:30;;;;;;;6.07;4.77;;;;;;;;;;5057657;28;20528;-75
2021/01/16 11:16:11;;;;;;;7.40;4.93;;;;;;;;;;5057071;28;20473;-76
2021/01/16 11:18:44;;;;;;;9.57;5.47;;;;;;;;;;5057473;28;20480;-75
2021/01/16 11:21:17;;;;;;;7.17;5.03;;;;;;;;;;5057474;28;20444;-77
2021/01/16 11:23:51;;;;;;;7.43;4.60;;;;;;;;;;5057534;28;20532;-75
2021/01/16 11:26:18;;;;;;;5.77;4.47;;;;;;;;;;5057249;28;20521;-76
2021/01/16 11:28:52;;;;;;;6.10;4.20;;;;;;;;;;5056991;28;20487;-76
2021/01/16 11:31:29;;;;;;;5.77;4.10;;;;;;;;;;5057233;28;20524;-75
2021/01/16 11:34:29;;;;;;;6.37;4.43;;;;;;;;;;5057402;28;20445;-74
2021/01/16 11:37:01;;;;;;;5.50;4.27;;;;;;;;;;5050314;28;20806;-76
2021/01/16 11:39:57;;;;;;;7.67;5.73;;;;;;;;;;5060957;28;20544;-77
2021/01/16 11:42:24;;;;;;;8.00;5.60;;;;;;;;;;5025580;28;20540;-76
2021/01/16 11:44:51;;;;;;;7.47;5.47;;;;;;;;;;5060693;28;20599;-76
2021/01/16 11:47:18;;;;;;;7.00;4.73;;;;;;;;;;5060879;28;20996;-76
2021/01/16 11:49:46;;;;;;;7.33;5.80;;;;;;;;;;5060914;28;20824;-76
2021/01/16 11:52:14;;;;;;;8.33;5.73;;;;;;;;;;5060961;28;20812;-76
2021/01/16 11:54:41;;;;;;;8.40;5.53;;;;;;;;;;5060615;28;20895;-76
2021/01/16 11:57:08;;;;;;;12.27;6.30;;;;;;;;;;5060985;28;20448;-79
2021/01/16 11:59:35;;;;;;;7.90;5.83;;;;;;;;;;5061610;28;20456;-78
2021/01/16 12:02:03;;;;;;;10.73;6.63;;;;;;;;;;5060526;28;20442;-74
2021/01/16 12:04:30;;;;;;;8.20;6.57;;;;;;;;;;5060548;28;20465;-74
2021/01/16 12:06:59;;;;;;;6.80;5.23;;;;;;;;;;5060011;28;21050;-75
2021/01/16 12:09:29;;;;;;;8.03;6.07;;;;;;;;;;5060243;28;20449;-75
2021/01/16 12:12:00;;;;;;;9.83;6.03;;;;;;;;;;5060282;28;20441;-75
2021/01/16 12:14:33;;;;;;;6.97;5.30;;;;;;;;;;5059854;28;20461;-75
2021/01/16 12:17:05;;;;;;;7.40;5.63;;;;;;;;;;5060320;28;20499;-76
2021/01/16 12:19:32;;;;;;;8.50;5.70;;;;;;;;;;5060743;28;20456;-76
2021/01/16 12:22:02;;;;;;;7.50;5.80;;;;;;;;;;5060292;28;20471;-76
2021/01/16 12:24:30;;;;;;;9.17;6.00;;;;;;;;;;5060394;28;20529;-75
2021/01/16 12:26:59;;;;;;;9.37;5.90;;;;;;;;;;5060201;28;20999;-75
2021/01/16 12:29:34;;;;;;;7.63;5.53;;;;;;;;;;5060418;28;20524;-76
2021/01/16 12:32:02;;;;;;;7.87;5.50;;;;;;;;;;5060381;28;20449;-75
2021/01/16 12:34:29;;;;;;;7.33;5.33;;;;;;;;;;5059808;28;20461;-75
2021/01/16 12:36:56;;;;;;;7.30;5.93;;;;;;;;;;5059779;28;20552;-77
2021/01/16 12:39:24;;;;;;;8.03;6.17;;;;;;;;;;5059738;28;20485;-76
2021/01/16 12:41:57;;;;;;;9.13;6.73;;;;;;;;;;5059706;28;20954;-75
2021/01/16 12:44:24;;;;;;;9.53;6.07;;;;;;;;;;5059752;28;20487;-75
2021/01/16 12:46:51;;;;;;;8.43;5.90;;;;;;;;;;5059477;28;20521;-75
2021/01/16 12:49:20;;;;;;;7.63;6.13;;;;;;;;;;5059835;28;21022;-75
2021/01/16 12:51:48;;;;;;;8.00;5.63;;;;;;;;;;5059906;28;20434;-75
2021/01/16 12:54:15;;;;;;;7.67;5.87;;;;;;;;;;5059613;28;20465;-76
2021/01/16 12:56:43;;;;;;;9.43;5.90;;;;;;;;;;5059760;28;20451;-75
2021/01/16 12:59:15;;;;;;;8.73;5.60;;;;;;;;;;5059416;28;20828;-76
2021/01/16 13:01:44;;;;;;;8.93;6.57;;;;;;;;;;5059466;28;20812;-75
2021/01/16 13:04:12;;;;;;;9.70;5.70;;;;;;;;;;5059398;28;20538;-75
2021/01/16 13:06:39;;;;;;;6.93;5.93;;;;;;;;;;5058374;28;20444;-74
2021/01/16 13:09:07;;;;;;;8.90;6.97;;;;;;;;;;5056340;28;20477;-75
2021/01/16 13:11:34;;;;;;;8.43;6.40;;;;;;;;;;5058145;28;20525;-75
2021/01/16 13:14:03;;;;;;;7.97;5.77;;;;;;;;;;5058284;28;20529;-75
2021/01/16 13:16:43;;;;;;;8.57;5.80;;;;;;;;;;5058723;28;20473;-75
2021/01/16 13:19:10;;;;;;;8.87;6.17;;;;;;;;;;5049437;28;20445;-75
2021/01/16 13:21:37;;;;;;;7.33;5.70;;;;;;;;;;5059101;28;20445;-75
2021/01/16 13:24:05;;;;;;;7.60;5.57;;;;;;;;;;5059138;28;20524;-75
2021/01/16 13:26:38;;;;;;;6.27;5.57;;;;;;;;;;5059496;28;20477;-77
2021/01/16 13:29:07;;;;;;;9.70;6.57;;;;;;;;;;5058835;28;20504;-75
2021/01/16 13:31:35;;;;;;;8.33;6.70;;;;;;;;;;5058929;28;20480;-76
2021/01/16 13:34:02;;;;;;;9.67;6.17;;;;;;;;;;5058458;28;20829;-76
2021/01/16 13:36:36;;;;;;;7.73;6.20;;;;;;;;;;5057725;28;20492;-76
2021/01/16 13:39:11;;;;;;;7.07;5.90;;;;;;;;;;5057751;28;20541;-76
2021/01/16 13:41:39;;;;;;;9.97;7.10;;;;;;;;;;5057877;28;20449;-76
2021/01/16 13:44:15;;;;;;;8.70;6.50;;;;;;;;;;5055220;28;20548;-76
2021/01/16 13:46:45;;;;;;;10.53;7.33;;;;;;;;;;5057417;28;20480;-76
2021/01/16 13:49:21;;;;;;;8.30;6.67;;;;;;;;;;5057408;28;20481;-75
2021/01/16 13:51:48;;;;;;;11.40;7.33;;;;;;;;;;5055230;28;20440;-75
2021/01/16 13:54:20;;;;;;;10.03;6.83;;;;;;;;;;5057033;28;20536;-76
2021/01/16 13:56:50;;;;;;;8.00;6.33;;;;;;;;;;5054183;28;20454;-76
2021/01/16 13:59:23;;;;;;;8.57;6.40;;;;;;;;;;5056605;28;20504;-76
2021/01/16 14:01:52;;;;;;;9.57;6.53;;;;;;;;;;5054737;28;20544;-76
2021/01/16 14:04:19;;;;;;;15.90;8.93;;;;;;;;;;5056614;28;20497;-75
2021/01/16 14:06:47;;;;;;;10.73;6.80;;;;;;;;;;5057156;28;20513;-75
2021/01/16 14:09:25;;;;;;;9.93;6.60;;;;;;;;;;5057819;28;20484;-75
2021/01/16 14:11:56;;;;;;;11.77;7.60;;;;;;;;;;5056957;28;20472;-75
2021/01/16 14:14:28;;;;;;;11.90;7.23;;;;;;;;;;5058034;28;20508;-76
2021/01/16 14:17:13;;;;;;;9.50;6.50;;;;;;;;;;5057849;28;20944;-76
2021/01/16 14:19:41;;;;;;;9.37;7.07;;;;;;;;;;5058570;28;20445;-75
2021/01/16 14:22:08;;;;;;;10.53;7.30;;;;;;;;;;5058938;28;20481;-76
2021/01/16 14:24:39;;;;;;;12.17;7.87;;;;;;;;;;5059001;28;20557;-76
2021/01/16 14:27:07;;;;;;;11.73;7.67;;;;;;;;;;5058761;28;20507;-76
2021/01/16 14:29:42;;;;;;;8.93;5.83;;;;;;;;;;5057128;28;20437;-76
2021/01/16 14:32:09;;;;;;;9.70;7.20;;;;;;;;;;5059639;28;20868;-76
2021/01/16 14:34:41;;;;;;;12.40;6.87;;;;;;;;;;5060513;28;20909;-76
2021/01/16 14:37:08;;;;;;;10.23;7.00;;;;;;;;;;5059003;28;20451;-76
2021/01/16 14:39:41;;;;;;;9.37;6.43;;;;;;;;;;5057741;28;20552;-76
2021/01/16 14:42:13;;;;;;;9.67;6.27;;;;;;;;;;5057435;28;20894;-76
2021/01/16 14:44:40;;;;;;;10.00;6.60;;;;;;;;;;5057381;28;20827;-75
2021/01/16 14:47:07;;;;;;;8.67;6.23;;;;;;;;;;5057709;28;20442;-75
2021/01/16 14:49:35;;;;;;;7.83;6.20;;;;;;;;;;5057839;28;20491;-76
2021/01/16 14:52:07;;;;;;;10.63;7.40;;;;;;;;;;5057637;28;20433;-75
2021/01/16 14:54:43;;;;;;;7.67;6.87;;;;;;;;;;5057641;28;20497;-76